Time;durP1;ratioP1;P1;durP2;ratioP2;P2;SDS_P1;SDS_P2;PMS_P1;PMS_P2;Temp;Humidity;BMP_temperature;BMP_pressure;BME280_temperature;BME280_humidity;BME280_pressure;Samples;Min_cycle;Max_cycle;Signal;HPM_P1;HPM_P2
2023/06/02 00:02:14;;;;;;;;;;;10.40;99.90;;;-148.53;100.00;63986.66;5059984;28;19956;-76
2023/06/02 00:04:40;;;;;;;;;;;10.40;99.90;;;-148.53;100.00;63986.66;5054379;28;19924;-77
2023/06/02 00:07:07;;;;;;;;;;;10.40;99.90;;;-148.53;100.00;63986.66;5053707;28;19917;-77
2023/06/02 00:09:40;;;;;;;;;;;10.40;99.90;;;-148.53;100.00;63986.66;5084954;28;20012;-77
2023/06/02 00:12:08;;;;;;;;;;;10.40;99.90;;;-148.53;100.00;63986.66;5057447;28;20019;-77
2023/06/02 00:14:34;;;;;;;;;;;10.40;99.90;;;-148.53;100.00;63986.66;5057491;28;19984;-77
2023/06/02 00:17:00;;;;;;;;;;;10.40;99.90;;;-148.53;100.00;63986.66;5054291;28;19932;-77
2023/06/02 00:19:30;;;;;;;;;;;10.40;99.90;;;-148.53;100.00;63986.66;5054428;28;20121;-77
2023/06/02 00:21:57;;;;;;;;;;;10.30;99.90;;;-148.53;100.00;63986.66;5053547;28;19923;-77
2023/06/02 00:24:23;;;;;;;;;;;10.30;99.90;;;-148.53;100.00;63986.66;5064366;28;20007;-77
2023/06/02 00:26:49;;;;;;;;;;;10.30;99.90;;;-148.53;100.00;63986.66;5053528;28;19923;-77
2023/06/02 00:29:14;;;;;;;;;;;10.30;99.90;;;-148.53;100.00;63986.66;5057664;28;19916;-77
2023/06/02 00:31:40;;;;;;;;;;;10.30;99.90;;;-148.53;100.00;63986.66;5053664;28;19916;-76
2023/06/02 00:34:06;;;;;;;;;;;10.30;99.90;;;-148.53;100.00;63986.66;5053066;28;20356;-77
2023/06/02 00:36:31;;;;;;;;;;;10.30;99.90;;;-148.53;100.00;63986.66;5053789;28;20344;-77
2023/06/02 00:38:57;;;;;;;;;;;10.30;99.90;;;-148.53;100.00;63986.66;5060562;28;20029;-77
2023/06/02 00:41:23;;;;;;;;;;;10.30;99.90;;;-148.53;100.00;63986.66;5054273;28;20041;-77
2023/06/02 00:43:48;;;;;;;;;;;10.30;99.90;;;-148.53;100.00;63986.66;5056548;28;19924;-77
2023/06/02 00:46:14;;;;;;;;;;;10.30;99.90;;;-148.53;100.00;63986.66;5054346;28;19960;-77
2023/06/02 00:48:39;;;;;;;;;;;10.30;99.90;;;-148.53;100.00;63986.66;5059539;28;19948;-74
2023/06/02 00:51:05;;;;;;;;;;;10.20;99.90;;;-148.53;100.00;63986.66;5056974;28;19917;-75
2023/06/02 00:53:31;;;;;;;;;;;10.20;99.90;;;-148.53;100.00;63986.66;5052961;28;20011;-78
2023/06/02 00:55:59;;;;;;;;;;;10.20;99.90;;;-148.53;100.00;63986.66;5053254;28;19994;-75
2023/06/02 00:58:25;;;;;;;;;;;10.20;99.90;;;-148.53;100.00;63986.66;5052057;28;19916;-77
2023/06/02 01:00:51;;;;;;;;;;;10.20;99.90;;;-148.53;100.00;63986.66;5067521;28;19923;-75
2023/06/02 01:03:21;;;;;;;;;;;10.20;99.90;;;-148.53;100.00;63986.66;5052810;28;19928;-75
2023/06/02 01:05:48;;;;;;;;;;;10.20;99.90;;;-148.53;100.00;63986.66;5067886;28;20019;-75
2023/06/02 01:08:16;;;;;;;;;;;10.20;99.90;;;-148.53;100.00;63986.66;5060530;28;20416;-76
2023/06/02 01:10:42;;;;;;;;;;;10.20;99.90;;;-148.53;100.00;63986.66;5057100;28;19916;-75
2023/06/02 01:13:08;;;;;;;;;;;10.20;99.90;;;-148.53;100.00;63986.66;5053497;28;19961;-75
2023/06/02 01:15:33;;;;;;;;;;;10.20;99.90;;;-148.53;100.00;63986.66;5062939;28;19916;-75
2023/06/02 01:18:01;;;;;;;;;;;10.20;99.90;;;-148.53;100.00;63986.66;5050427;28;19925;-76
2023/06/02 01:20:28;;;;;;;;;;;10.20;99.90;;;-148.53;100.00;63986.66;5055089;28;20300;-76
2023/06/02 01:23:15;;;;;;;;;;;10.20;99.90;;;-148.53;100.00;63986.66;5052785;28;20377;-76
2023/06/02 01:25:41;;;;;;;;;;;10.20;99.90;;;-148.53;100.00;63986.66;5057452;28;20460;-76
2023/06/02 01:28:09;;;;;;;;;;;10.20;99.90;;;-148.53;100.00;63986.66;5056711;28;20026;-75
2023/06/02 01:30:35;;;;;;;;;;;10.20;99.90;;;-148.53;100.00;63986.66;5053074;28;20490;-76
2023/06/02 01:33:26;;;;;;;;;;;10.20;99.90;;;-148.53;100.00;63986.66;5061941;28;19920;-76
2023/06/02 01:35:59;;;;;;;;;;;10.20;99.90;;;-148.53;100.00;63986.66;5055493;28;20007;-76
2023/06/02 01:38:26;;;;;;;;;;;10.20;99.90;;;-148.53;100.00;63986.66;5052709;28;19921;-75
2023/06/02 01:40:54;;;;;;;;;;;10.20;99.90;;;-148.53;100.00;63986.66;5063642;28;19916;-76
2023/06/02 01:43:19;;;;;;;;;;;10.10;99.90;;;-148.53;100.00;63986.66;5059363;28;19920;-76
2023/06/02 01:45:45;;;;;;;;;;;10.20;99.90;;;-148.53;100.00;63986.66;5066451;28;19916;-75
2023/06/02 01:48:12;;;;;;;;;;;10.10;99.90;;;-148.53;100.00;63986.66;5060078;28;19978;-75
2023/06/02 01:50:38;;;;;;;;;;;10.10;99.90;;;-148.53;100.00;63986.66;5055143;28;20020;-75
2023/06/02 01:53:05;;;;;;;;;;;10.10;99.90;;;-148.53;100.00;63986.66;5052685;28;20379;-75
2023/06/02 01:55:33;;;;;;;;;;;10.10;99.90;;;-148.53;100.00;63986.66;5061203;28;19932;-76
2023/06/02 01:57:59;;;;;;;;;;;10.10;99.90;;;-148.53;100.00;63986.66;5066723;28;19970;-76
2023/06/02 02:00:26;;;;;;;;;;;10.10;99.90;;;-148.53;100.00;63986.66;5066848;28;19916;-76
2023/06/02 02:02:52;;;;;;;;;;;10.10;99.90;;;-148.53;100.00;63986.66;5056779;28;19939;-76
2023/06/02 02:05:18;;;;;;;;;;;10.10;99.90;;;-148.53;100.00;63986.66;5051792;28;19920;-76
2023/06/02 02:07:45;;;;;;;;;;;10.10;99.90;;;-148.53;100.00;63986.66;5059354;28;19926;-76
2023/06/02 02:10:12;;;;;;;;;;;10.10;99.90;;;-148.53;100.00;63986.66;5052541;28;20021;-76
2023/06/02 02:12:41;;;;;;;;;;;10.10;99.90;;;-148.53;100.00;63986.66;5057969;28;19923;-75
2023/06/02 02:15:07;;;;;;;;;;;10.10;99.90;;;-148.53;100.00;63986.66;5057508;28;19920;-76
2023/06/02 02:17:33;;;;;;;;;;;10.10;99.90;;;-148.53;100.00;63986.66;5056876;28;19916;-76
2023/06/02 02:20:00;;;;;;;;;;;10.10;99.90;;;-148.53;100.00;63986.66;5064471;28;19962;-77
2023/06/02 02:22:26;;;;;;;;;;;10.20;99.90;;;-148.53;100.00;63986.66;5059974;28;19916;-74
2023/06/02 02:24:52;;;;;;;;;;;10.20;99.90;;;-148.53;100.00;63986.66;5084340;28;20372;-75
2023/06/02 02:27:17;;;;;;;;;;;10.20;99.90;;;-148.53;100.00;63986.66;5058572;28;19928;-75
2023/06/02 02:29:44;;;;;;;;;;;10.20;99.90;;;-148.53;100.00;63986.66;5053347;28;19952;-76
2023/06/02 02:32:10;;;;;;;;;;;10.10;99.90;;;-148.53;100.00;63986.66;5059238;28;19916;-76
2023/06/02 02:34:38;;;;;;;;;;;10.10;99.90;;;-148.53;100.00;63986.66;5063316;28;20335;-75
2023/06/02 02:37:06;;;;;;;;;;;10.10;99.90;;;-148.53;100.00;63986.66;5063804;28;19924;-76
2023/06/02 02:39:33;;;;;;;;;;;10.10;99.90;;;-148.53;100.00;63986.66;5065145;28;20011;-75
2023/06/02 02:42:00;;;;;;;;;;;10.20;99.90;;;-148.53;100.00;63986.66;5084222;28;19917;-75
2023/06/02 02:44:26;;;;;;;;;;;10.20;99.90;;;-148.53;100.00;63986.66;5055917;28;19916;-75
2023/06/02 02:46:52;;;;;;;;;;;10.20;99.90;;;-148.53;100.00;63986.66;5058511;28;19978;-75
2023/06/02 02:49:18;;;;;;;;;;;10.20;99.90;;;-148.53;100.00;63986.66;5058970;28;19931;-75
2023/06/02 02:51:44;;;;;;;;;;;10.10;99.90;;;-148.53;100.00;63986.66;5063759;28;20318;-75
2023/06/02 02:54:09;;;;;;;;;;;10.10;99.90;;;-148.53;100.00;63986.66;5063730;28;19960;-74
2023/06/02 02:56:36;;;;;;;;;;;10.10;99.90;;;-148.53;100.00;63986.66;5059662;28;19979;-75
2023/06/02 02:59:02;;;;;;;;;;;10.10;99.90;;;-148.53;100.00;63986.66;5055965;28;20288;-76
2023/06/02 03:01:29;;;;;;;;;;;10.10;99.90;;;-148.53;100.00;63986.66;5054236;28;19926;-75
2023/06/02 03:03:56;;;;;;;;;;;10.10;99.90;;;-148.53;100.00;63986.66;5062255;28;20323;-76
2023/06/02 03:06:29;;;;;;;;;;;10.10;99.90;;;-148.53;100.00;63986.66;5060677;28;20422;-76
2023/06/02 03:08:55;;;;;;;;;;;10.10;99.90;;;-148.53;100.00;63986.66;5059887;28;19947;-75
2023/06/02 03:11:21;;;;;;;;;;;10.00;99.90;;;-148.53;100.00;63986.66;5058824;28;19927;-76
2023/06/02 03:13:47;;;;;;;;;;;10.00;99.90;;;-148.53;100.00;63986.66;5061919;28;20004;-76
2023/06/02 03:16:13;;;;;;;;;;;10.00;99.90;;;-148.53;100.00;63986.66;5069207;28;20252;-74
2023/06/02 03:18:38;;;;;;;;;;;9.90;99.90;;;-148.53;100.00;63986.66;5055197;28;19966;-76
2023/06/02 03:21:05;;;;;;;;;;;9.90;99.90;;;-148.53;100.00;63986.66;5064054;28;19988;-75
2023/06/02 03:23:31;;;;;;;;;;;9.90;99.90;;;-148.53;100.00;63986.66;5055617;28;19924;-75
2023/06/02 03:26:00;;;;;;;;;;;9.90;99.90;;;-148.53;100.00;63986.66;5062385;28;19923;-77
2023/06/02 03:28:26;;;;;;;;;;;10.00;99.90;;;-148.53;100.00;63986.66;5086875;28;19939;-77
2023/06/02 03:30:52;;;;;;;;;;;10.00;99.90;;;-148.53;100.00;63986.66;5054414;28;19916;-77
2023/06/02 03:33:21;;;;;;;;;;;10.10;99.90;;;-148.53;100.00;63986.66;5062884;28;19916;-77
2023/06/02 03:35:48;;;;;;;;;;;10.10;99.90;;;-148.53;100.00;63986.66;5066464;28;19967;-77
2023/06/02 03:38:13;;;;;;;;;;;10.10;99.90;;;-148.53;100.00;63986.66;5059788;28;20003;-77
2023/06/02 03:40:39;;;;;;;;;;;10.20;99.90;;;-148.53;100.00;63986.66;5054858;28;20032;-77
2023/06/02 03:43:05;;;;;;;;;;;10.20;99.90;;;-148.53;100.00;63986.66;5061189;28;20024;-77
2023/06/02 03:45:31;;;;;;;;;;;10.20;99.90;;;-148.53;100.00;63986.66;5056200;28;20306;-76
2023/06/02 03:47:56;;;;;;;;;;;10.20;99.90;;;-148.53;100.00;63986.66;5062885;28;19974;-76
2023/06/02 03:50:22;;;;;;;;;;;10.20;99.90;;;-148.53;100.00;63986.66;5054021;28;19917;-77
2023/06/02 03:52:48;;;;;;;;;;;10.20;99.90;;;-148.53;100.00;63986.66;5067477;28;20380;-78
2023/06/02 03:55:16;;;;;;;;;;;10.30;99.90;;;-148.53;100.00;63986.66;5059860;28;20284;-77
2023/06/02 03:57:42;;;;;;;;;;;10.30;99.90;;;-148.53;100.00;63986.66;5061608;28;19921;-77
2023/06/02 04:00:11;;;;;;;;;;;10.30;99.90;;;-148.53;100.00;63986.66;5057881;28;19970;-77
2023/06/02 04:02:40;;;;;;;;;;;10.30;99.90;;;-148.53;100.00;63986.66;5055881;28;19924;-77
2023/06/02 04:05:08;;;;;;;;;;;10.40;99.90;;;-148.53;100.00;63986.66;5053592;28;20002;-78
2023/06/02 04:07:33;;;;;;;;;;;10.40;99.90;;;-148.53;100.00;63986.66;5054203;28;19916;-77
2023/06/02 04:10:02;;;;;;;;;;;10.40;99.90;;;-148.53;100.00;63986.66;5054381;28;19948;-77
2023/06/02 04:12:27;;;;;;;;;;;10.40;99.90;;;-148.53;100.00;63986.66;5067109;28;20318;-78
2023/06/02 04:14:54;;;;;;;;;;;10.50;99.90;;;-148.53;100.00;63986.66;5056808;28;19920;-77
2023/06/02 04:17:19;;;;;;;;;;;10.60;99.90;;;-148.53;100.00;63986.66;5064505;28;20380;-77
2023/06/02 04:19:45;;;;;;;;;;;10.60;99.90;;;-148.53;100.00;63986.66;5056024;28;19966;-77
2023/06/02 04:22:11;;;;;;;;;;;10.60;99.90;;;-148.53;100.00;63986.66;5065086;28;19923;-76
2023/06/02 04:24:40;;;;;;;;;;;10.60;99.90;;;-148.53;100.00;63986.66;5053381;28;20008;-77
2023/06/02 04:27:06;;;;;;;;;;;10.60;99.90;;;-148.53;100.00;63986.66;5058903;28;19967;-77
2023/06/02 04:29:33;;;;;;;;;;;10.70;99.90;;;-148.53;100.00;63986.66;5060963;28;19955;-78
2023/06/02 04:32:01;;;;;;;;;;;10.70;99.90;;;-148.53;100.00;63986.66;5067166;28;19916;-78
2023/06/02 04:34:28;;;;;;;;;;;10.70;99.90;;;-148.53;100.00;63986.66;5056947;28;19924;-78
2023/06/02 04:36:54;;;;;;;;;;;10.70;99.90;;;-148.53;100.00;63986.66;5061471;28;19916;-77
2023/06/02 04:39:20;;;;;;;;;;;10.80;99.90;;;-148.53;100.00;63986.66;5067586;28;19923;-78
2023/06/02 04:41:48;;;;;;;;;;;10.80;99.90;;;-148.53;100.00;63986.66;5054399;28;19921;-77
2023/06/02 04:44:16;;;;;;;;;;;10.80;99.90;;;-148.53;100.00;63986.66;5053292;28;20003;-77
2023/06/02 04:46:43;;;;;;;;;;;10.80;99.90;;;-148.53;100.00;63986.66;5052272;28;19952;-76
2023/06/02 04:49:09;;;;;;;;;;;10.80;99.90;;;-148.53;100.00;63986.66;5057853;28;19916;-77
2023/06/02 04:51:37;;;;;;;;;;;10.80;99.90;;;-148.53;100.00;63986.66;5072798;28;19916;-78
2023/06/02 04:54:03;;;;;;;;;;;10.80;99.90;;;-148.53;100.00;63986.66;5057739;28;19916;-78
2023/06/02 04:56:30;;;;;;;;;;;10.70;99.90;;;-148.53;100.00;63986.66;5065485;28;19924;-78
2023/06/02 04:58:57;;;;;;;;;;;10.70;99.90;;;-148.53;100.00;63986.66;5060326;28;19923;-78
2023/06/02 05:01:23;;;;;;;;;;;10.70;99.90;;;-148.53;100.00;63986.66;5086419;28;20007;-77
2023/06/02 05:03:50;;;;;;;;;;;10.70;99.90;;;-148.53;100.00;63986.66;5065543;28;20362;-77
2023/06/02 05:06:16;;;;;;;;;;;10.80;99.90;;;-148.53;100.00;63986.66;5053209;28;19927;-78
2023/06/02 05:08:42;;;;;;;;;;;10.90;99.90;;;-148.53;100.00;63986.66;5058336;28;19963;-78
2023/06/02 05:11:07;;;;;;;;;;;11.00;99.90;;;-148.53;100.00;63986.66;5060524;28;19986;-76
2023/06/02 05:13:33;;;;;;;;;;;11.10;99.90;;;-148.53;100.00;63986.66;5060506;28;19921;-77
2023/06/02 05:15:59;;;;;;;;;;;11.00;99.90;;;-148.53;100.00;63986.66;5066633;28;19916;-79
2023/06/02 05:18:25;;;;;;;;;;;10.70;99.90;;;-148.53;100.00;63986.66;5062231;28;19966;-75
2023/06/02 05:20:51;;;;;;;;;;;10.80;99.90;;;-148.53;100.00;63986.66;5089513;28;19917;-75
2023/06/02 05:23:18;;;;;;;;;;;10.80;99.90;;;-148.53;100.00;63986.66;5065193;28;19931;-75
2023/06/02 05:25:43;;;;;;;;;;;11.00;99.90;;;-148.53;100.00;63986.66;5067549;28;19999;-75
2023/06/02 05:28:09;;;;;;;;;;;11.10;99.90;;;-148.53;100.00;63986.66;5064292;28;20015;-75
2023/06/02 05:30:35;;;;;;;;;;;11.20;99.90;;;-148.53;100.00;63986.66;5059943;28;19923;-76
2023/06/02 05:33:01;;;;;;;;;;;11.30;99.90;;;-148.53;100.00;63986.66;5069101;28;19998;-75
2023/06/02 05:35:28;;;;;;;;;;;11.20;99.90;;;-148.53;100.00;63986.66;5063235;28;20326;-75
2023/06/02 05:37:53;;;;;;;;;;;11.20;99.90;;;-148.53;100.00;63986.66;5066457;28;19924;-76
2023/06/02 05:40:19;;;;;;;;;;;11.40;99.90;;;-148.53;100.00;63986.66;5056058;28;19967;-76
2023/06/02 05:42:45;;;;;;;;;;;11.50;99.90;;;-148.53;100.00;63986.66;5052670;28;19916;-77
2023/06/02 05:45:13;;;;;;;;;;;11.60;99.90;;;-148.53;100.00;63986.66;5056779;28;20416;-76
2023/06/02 05:47:39;;;;;;;;;;;11.60;99.90;;;-148.53;100.00;63986.66;5063593;28;19939;-78
2023/06/02 05:50:06;;;;;;;;;;;11.50;99.90;;;-148.53;100.00;63986.66;5060154;28;19920;-74
2023/06/02 05:52:32;;;;;;;;;;;11.60;99.90;;;-148.53;100.00;63986.66;5056629;28;19919;-77
2023/06/02 05:54:58;;;;;;;;;;;11.40;99.90;;;-148.53;100.00;63986.66;5053965;28;19970;-77
2023/06/02 05:57:24;;;;;;;;;;;11.40;99.90;;;-148.53;100.00;63986.66;5065121;28;19921;-77
2023/06/02 05:59:50;;;;;;;;;;;11.40;99.90;;;-148.53;100.00;63986.66;5066311;28;20494;-77
2023/06/02 06:02:16;;;;;;;;;;;11.40;99.90;;;-148.53;100.00;63986.66;5056467;28;19916;-77
2023/06/02 06:04:41;;;;;;;;;;;11.40;99.90;;;-148.53;100.00;63986.66;5063741;28;19923;-77
2023/06/02 06:07:08;;;;;;;;;;;11.50;99.90;;;-148.53;100.00;63986.66;5054928;28;20375;-79
2023/06/02 06:09:33;;;;;;;;;;;11.50;99.90;;;-148.53;100.00;63986.66;5052333;28;20062;-77
2023/06/02 06:12:02;;;;;;;;;;;11.50;99.90;;;-148.53;100.00;63986.66;5057831;28;19912;-77
2023/06/02 06:14:28;;;;;;;;;;;11.50;99.90;;;-148.53;100.00;63986.66;5059080;28;19916;-78
2023/06/02 06:16:54;;;;;;;;;;;11.60;99.90;;;-148.53;100.00;63986.66;5060595;28;20791;-75
2023/06/02 06:19:20;;;;;;;;;;;11.60;99.90;;;-148.53;100.00;63986.66;5057818;28;19960;-77
2023/06/02 06:21:46;;;;;;;;;;;11.60;99.90;;;-148.53;100.00;63986.66;5058523;28;20013;-78
2023/06/02 06:24:12;;;;;;;;;;;11.70;99.90;;;-148.53;100.00;63986.66;5069986;28;19974;-77
2023/06/02 06:26:38;;;;;;;;;;;11.70;99.90;;;-148.53;100.00;63986.66;5065532;28;19921;-79
2023/06/02 06:29:03;;;;;;;;;;;11.80;99.90;;;-148.53;100.00;63986.66;5069391;28;19917;-78
2023/06/02 06:31:32;;;;;;;;;;;12.00;99.90;;;-148.53;100.00;63986.66;5071819;28;19935;-76
2023/06/02 06:33:58;;;;;;;;;;;12.10;99.90;;;-148.53;100.00;63986.66;5071167;28;20383;-79
2023/06/02 06:36:24;;;;;;;;;;;12.10;99.90;;;-148.53;100.00;63986.66;5053957;28;19916;-77
2023/06/02 06:38:50;;;;;;;;;;;12.30;99.90;;;-148.53;100.00;63986.66;5052417;28;19917;-78
2023/06/02 06:41:17;;;;;;;;;;;12.10;99.90;;;-148.53;100.00;63986.66;5055438;28;20334;-74
2023/06/02 06:43:44;;;;;;;;;;;11.90;99.90;;;-148.53;100.00;63986.66;5060326;28;19920;-76
2023/06/02 06:46:15;;;;;;;;;;;12.00;99.90;;;-148.53;100.00;63986.66;5067144;28;19928;-75
2023/06/02 06:48:41;;;;;;;;;;;11.90;99.90;;;-148.53;100.00;63986.66;5055307;28;19916;-76
2023/06/02 06:51:06;;;;;;;;;;;12.10;99.90;;;-148.53;100.00;63986.66;5062116;28;19927;-75
2023/06/02 06:53:32;;;;;;;;;;;12.50;99.90;;;-148.53;100.00;63986.66;5058650;28;19923;-76
2023/06/02 06:55:59;;;;;;;;;;;12.60;99.90;;;-148.53;100.00;63986.66;5061864;28;19923;-76
2023/06/02 06:58:25;;;;;;;;;;;12.90;99.90;;;-148.53;100.00;63986.66;5059132;28;19939;-76
2023/06/02 07:00:50;;;;;;;;;;;13.20;99.90;;;-148.53;100.00;63986.66;5054740;28;20366;-76
2023/06/02 07:03:16;;;;;;;;;;;13.10;99.90;;;-148.53;100.00;63986.66;5054844;28;20443;-78
2023/06/02 07:05:43;;;;;;;;;;;13.40;99.90;;;-148.53;100.00;63986.66;5061692;28;19974;-76
2023/06/02 07:08:09;;;;;;;;;;;13.30;99.90;;;-148.53;100.00;63986.66;5055335;28;19917;-76
2023/06/02 07:10:34;;;;;;;;;;;13.40;99.90;;;-148.53;100.00;63986.66;5070170;28;19977;-77
2023/06/02 07:13:00;;;;;;;;;;;13.70;99.90;;;-148.53;100.00;63986.66;5059228;28;19959;-77
2023/06/02 07:15:26;;;;;;;;;;;13.60;99.90;;;-148.53;100.00;63986.66;5054330;28;19916;-78
2023/06/02 07:17:51;;;;;;;;;;;13.70;99.90;;;-148.53;100.00;63986.66;5055082;28;19963;-77
2023/06/02 07:20:17;;;;;;;;;;;13.90;99.90;;;-148.53;100.00;63986.66;5059598;28;19952;-78
2023/06/02 07:22:42;;;;;;;;;;;13.60;99.90;;;-148.53;100.00;63986.66;5055314;28;19916;-81
2023/06/02 07:25:08;;;;;;;;;;;13.50;99.90;;;-148.53;100.00;63986.66;5056094;28;19936;-78
2023/06/02 07:27:34;;;;;;;;;;;13.70;99.90;;;-148.53;100.00;63986.66;5055412;28;19917;-77
2023/06/02 07:30:01;;;;;;;;;;;13.70;99.90;;;-148.53;100.00;63986.66;5058865;28;19963;-79
2023/06/02 07:32:26;;;;;;;;;;;13.70;99.90;;;-148.53;100.00;63986.66;5053333;28;19932;-77
2023/06/02 07:34:52;;;;;;;;;;;13.80;99.90;;;-148.53;100.00;63986.66;5060746;28;19916;-77
2023/06/02 07:37:18;;;;;;;;;;;14.10;99.90;;;-148.53;100.00;63986.66;5068439;28;19967;-76
2023/06/02 07:39:43;;;;;;;;;;;14.20;99.90;;;-148.53;100.00;63986.66;5054538;28;20000;-76
2023/06/02 07:42:09;;;;;;;;;;;14.40;99.90;;;-148.53;100.00;63986.66;5062630;28;20347;-77
2023/06/02 07:44:35;;;;;;;;;;;14.50;99.90;;;-148.53;100.00;63986.66;5054299;28;19967;-78
2023/06/02 07:47:01;;;;;;;;;;;14.70;99.90;;;-148.53;100.00;63986.66;5054681;28;19923;-80
2023/06/02 07:49:26;;;;;;;;;;;15.10;99.90;;;-148.53;100.00;63986.66;5053677;28;19921;-78
2023/06/02 07:51:52;;;;;;;;;;;15.30;99.90;;;-148.53;100.00;63986.66;5060287;28;20367;-79
2023/06/02 07:54:17;;;;;;;;;;;15.70;99.90;;;-148.53;100.00;63986.66;5053206;28;20386;-81
2023/06/02 07:56:43;;;;;;;;;;;15.80;99.90;;;-148.53;100.00;63986.66;5059930;28;20390;-79
2023/06/02 07:59:12;;;;;;;;;;;15.10;99.90;;;-148.53;100.00;63986.66;5054597;28;19978;-81
2023/06/02 08:01:38;;;;;;;;;;;14.80;99.90;;;-148.53;100.00;63986.66;5058323;28;19917;-80
2023/06/02 08:04:04;;;;;;;;;;;15.20;99.90;;;-148.53;100.00;63986.66;5054005;28;19921;-82
2023/06/02 08:06:30;;;;;;;;;;;15.20;99.90;;;-148.53;100.00;63986.66;5086999;28;19924;-80
2023/06/02 08:08:58;;;;;;;;;;;15.80;99.90;;;-148.53;100.00;63986.66;5062667;28;20091;-80
2023/06/02 08:11:24;;;;;;;;;;;15.80;99.90;;;-148.53;100.00;63986.66;5053951;28;20015;-79
2023/06/02 08:13:49;;;;;;;;;;;15.80;99.90;;;-148.53;100.00;63986.66;5057429;28;19920;-79
2023/06/02 08:16:15;;;;;;;;;;;15.90;99.90;;;-148.53;100.00;63986.66;5052344;28;19916;-81
2023/06/02 08:18:41;;;;;;;;;;;16.00;99.90;;;-148.53;100.00;63986.66;5053335;28;20505;-78
2023/06/02 08:21:07;;;;;;;;;;;15.80;99.90;;;-148.53;100.00;63986.66;5050944;28;19924;-78
2023/06/02 08:23:32;;;;;;;;;;;15.80;99.90;;;-148.53;100.00;63986.66;5058943;28;19920;-77
2023/06/02 08:25:59;;;;;;;;;;;15.90;99.90;;;-148.53;100.00;63986.66;5051484;28;19916;-77
2023/06/02 08:28:29;;;;;;;;;;;16.20;99.90;;;-148.53;100.00;63986.66;5051496;28;19917;-77
2023/06/02 08:30:58;;;;;;;;;;;16.30;99.90;;;-148.53;100.00;63986.66;5052107;28;19927;-78
2023/06/02 08:33:24;;;;;;;;;;;15.90;99.90;;;-148.53;100.00;63986.66;5055780;28;19921;-77
2023/06/02 08:35:51;;;;;;;;;;;15.70;99.90;;;-148.53;100.00;63986.66;5051965;28;20006;-78
2023/06/02 08:38:17;;;;;;;;;;;15.30;99.90;;;-148.53;100.00;63986.66;5051754;28;19932;-78
2023/06/02 08:40:45;;;;;;;;;;;15.10;99.90;;;-148.53;100.00;63986.66;5052936;28;19920;-81
2023/06/02 08:43:13;;;;;;;;;;;15.20;99.90;;;-148.53;100.00;63986.66;5048966;28;20009;-77
2023/06/02 08:45:41;;;;;;;;;;;15.40;99.90;;;-148.53;100.00;63986.66;5053062;28;19917;-78
2023/06/02 08:48:09;;;;;;;;;;;15.60;99.90;;;-148.53;100.00;63986.66;5054134;28;20030;-79
2023/06/02 08:50:37;;;;;;;;;;;16.10;99.90;;;-148.53;100.00;63986.66;5050856;28;19924;-79
2023/06/02 08:53:05;;;;;;;;;;;16.20;99.90;;;-148.53;100.00;63986.66;5057920;28;19924;-79
2023/06/02 08:55:32;;;;;;;;;;;16.40;99.90;;;-148.53;100.00;63986.66;5053319;28;19921;-79
2023/06/02 08:57:58;;;;;;;;;;;16.60;99.90;;;-148.53;100.00;63986.66;5088148;28;19931;-79
2023/06/02 09:00:24;;;;;;;;;;;16.50;99.90;;;-148.53;100.00;63986.66;5057421;28;20284;-79
2023/06/02 09:02:49;;;;;;;;;;;16.70;99.90;;;-148.53;100.00;63986.66;5050914;28;19920;-79
2023/06/02 09:05:16;;;;;;;;;;;17.50;99.90;;;-148.53;100.00;63986.66;5050806;28;20299;-79
2023/06/02 09:07:46;;;;;;;;;;;;;;;-148.53;100.00;63986.66;5040186;28;20090;-77
2023/06/02 09:10:31;;;;;;;;;;;17.70;99.90;;;-148.53;100.00;63986.66;5050837;28;20008;-79
2023/06/02 09:12:56;;;;;;;;;;;17.70;99.90;;;-148.53;100.00;63986.66;5051299;28;19920;-78
2023/06/02 09:15:25;;;;;;;;;;;17.10;99.90;;;-148.53;100.00;63986.66;5058683;28;20383;-81
2023/06/02 09:17:51;;;;;;;;;;;17.70;99.90;;;-148.53;100.00;63986.66;5063088;28;19920;-79
2023/06/02 09:20:17;;;;;;;;;;;17.40;99.90;;;-148.53;100.00;63986.66;5053308;28;19977;-77
2023/06/02 09:22:57;;;;;;;;;;;17.60;99.90;;;-148.53;100.00;63986.66;5050918;28;19921;-79
2023/06/02 09:25:27;;;;;;;;;;;18.00;99.90;;;-148.53;100.00;63986.66;5058036;28;20373;-77
2023/06/02 09:27:56;;;;;;;;;;;17.60;99.90;;;-148.53;100.00;63986.66;5063836;28;19923;-80
2023/06/02 09:30:22;;;;;;;;;;;17.90;99.90;;;-148.53;100.00;63986.66;5050232;28;19921;-79
2023/06/02 09:32:55;;;;;;;;;;;18.00;99.90;;;-148.53;100.00;63986.66;5050271;28;20347;-79
2023/06/02 09:35:36;;;;;;;;;;;17.60;99.90;;;-148.53;100.00;63986.66;5050286;28;19917;-78
2023/06/02 09:38:05;;;;;;;;;;;;;;;-148.53;100.00;63986.66;5054208;28;20308;-77
2023/06/02 09:40:33;;;;;;;;;;;18.00;99.90;;;-148.53;100.00;63986.66;5056964;28;19923;-79
2023/06/02 09:43:01;;;;;;;;;;;19.00;99.60;;;-148.53;100.00;63986.66;5052245;28;19916;-80
2023/06/02 09:45:26;;;;;;;;;;;18.40;99.90;;;-148.53;100.00;63986.66;5055195;28;20047;-78
2023/06/02 09:47:52;;;;;;;;;;;17.90;99.90;;;-148.53;100.00;63986.66;5053950;28;20015;-79
2023/06/02 09:50:35;;;;;;;;;;;18.00;99.90;;;-148.53;100.00;63986.66;5058280;28;19923;-79
2023/06/02 09:53:06;;;;;;;;;;;18.50;99.90;;;-148.53;100.00;63986.66;5053364;28;19932;-80
2023/06/02 09:55:33;;;;;;;;;;;;;;;-148.53;100.00;63986.66;5052214;28;20490;-80
2023/06/02 09:58:00;;;;;;;;;;;;;;;-148.53;100.00;63986.66;5064539;28;19916;-80
2023/06/02 10:00:26;;;;;;;;;;;19.10;99.90;;;-148.53;100.00;63986.66;5054199;28;19925;-80
2023/06/02 10:02:52;;;;;;;;;;;19.50;98.00;;;-148.53;100.00;63986.66;5055198;28;19923;-80
2023/06/02 10:05:20;;;;;;;;;;;18.60;99.20;;;-148.53;100.00;63986.66;5058052;28;20343;-81
2023/06/02 10:08:04;;;;;;;;;;;18.50;99.50;;;-148.53;100.00;63986.66;5053159;28;19940;-81
2023/06/02 10:10:49;;;;;;;;;;;;;;;-148.53;100.00;63986.66;5053182;28;19989;-78
2023/06/02 10:13:15;;;;;;;;;;;;;;;-148.53;100.00;63986.66;5057183;28;19923;-79
2023/06/02 10:15:46;;;;;;;;;;;;;;;-148.53;100.00;63986.66;5051981;28;19916;-81
2023/06/02 10:18:12;;;;;;;;;;;;;;;-148.53;100.00;63986.66;5057574;28;19919;-80
2023/06/02 10:21:20;;;;;;;;;;;19.30;99.10;;;-148.53;100.00;63986.66;5052868;28;19917;-81
2023/06/02 10:23:57;;;;;;;;;;;;;;;-148.53;100.00;63986.66;5052602;28;19931;-81
2023/06/02 10:26:32;;;;;;;;;;;;;;;-148.53;100.00;63986.66;5058774;28;20288;-79
2023/06/02 10:29:00;;;;;;;;;;;;;;;-148.53;100.00;63986.66;5052540;28;20288;-81
2023/06/02 10:31:31;;;;;;;;;;;;;;;-148.53;100.00;63986.66;5068518;28;19924;-80
2023/06/02 10:33:59;;;;;;;;;;;;;;;-148.53;100.00;63986.66;5066570;28;19921;-81
2023/06/02 10:36:25;;;;;;;;;;;;;;;-148.53;100.00;63986.66;5070401;28;19926;-81
2023/06/02 10:38:52;;;;;;;;;;;;;;;-148.53;100.00;63986.66;5067912;28;19916;-80
2023/06/02 10:41:21;;;;;;;;;;;;;;;-148.53;100.00;63986.66;5058970;28;19917;-80
2023/06/02 10:44:06;;;;;;;;;;;;;;;-148.53;100.00;63986.66;5050392;28;20287;-81
2023/06/02 10:46:32;;;;;;;;;;;;;;;-148.53;100.00;63986.66;5051710;28;20434;-78
2023/06/02 10:48:58;;;;;;;;;;;;;;;-148.53;100.00;63986.66;5051280;28;19920;-80
2023/06/02 10:51:24;;;;;;;;;;;;;;;-148.53;100.00;63986.66;5057428;28;19923;-80
2023/06/02 10:54:02;;;;;;;;;;;;;;;-148.53;100.00;63986.66;5051512;28;19963;-80
2023/06/02 10:56:35;;;;;;;;;;;;;;;-148.53;100.00;63986.66;5054120;28;19916;-80
2023/06/02 10:59:01;;;;;;;;;;;;;;;-148.53;100.00;63986.66;5052390;28;20003;-80
2023/06/02 11:01:43;;;;;;;;;;;;;;;-148.53;100.00;63986.66;5051757;28;19958;-80
2023/06/02 11:04:26;;;;;;;;;;;;;;;-148.53;100.00;63986.66;5055345;28;19924;-79